Time;durP1;ratioP1;P1;durP2;ratioP2;P2;SDS_P1;SDS_P2;PMS_P1;PMS_P2;Temp;Humidity;BMP_temperature;BMP_pressure;BME280_temperature;BME280_humidity;BME280_pressure;Samples;Min_cycle;Max_cycle;Signal;HPM_P1;HPM_P2
2021/01/30 00:00:12;;;;;;;7.43;5.97;;;;;;;;;;6348364;22;20404;-91
2021/01/30 00:02:38;;;;;;;5.63;5.00;;;;;;;;;;6346588;22;20199;-91
2021/01/30 00:05:05;;;;;;;6.30;5.70;;;;;;;;;;6348355;22;20621;-94
2021/01/30 00:07:31;;;;;;;7.70;5.73;;;;;;;;;;6347126;22;20454;-94
2021/01/30 00:09:57;;;;;;;6.90;5.47;;;;;;;;;;6345257;22;20463;-95
2021/01/30 00:12:23;;;;;;;13.53;8.40;;;;;;;;;;6347603;22;20721;-95
2021/01/30 00:14:50;;;;;;;9.83;6.20;;;;;;;;;;6349515;22;20479;-94
2021/01/30 00:17:16;;;;;;;6.43;5.67;;;;;;;;;;6347685;22;20411;-94
2021/01/30 00:19:44;;;;;;;10.00;7.22;;;;;;;;;;6349570;22;20403;-95
2021/01/30 00:22:12;;;;;;;8.67;6.67;;;;;;;;;;6352861;22;20204;-94
2021/01/30 00:24:42;;;;;;;7.00;6.30;;;;;;;;;;6353256;22;20434;-96
2021/01/30 00:27:10;;;;;;;7.38;6.13;;;;;;;;;;6349787;22;20726;-94
2021/01/30 00:29:37;;;;;;;6.38;5.53;;;;;;;;;;6353397;22;20179;-95
2021/01/30 00:32:04;;;;;;;9.02;5.60;;;;;;;;;;6351915;22;20202;-95
2021/01/30 00:34:31;;;;;;;7.10;5.80;;;;;;;;;;6348732;22;20175;-93
2021/01/30 00:36:58;;;;;;;8.27;5.78;;;;;;;;;;6346757;22;20507;-91
2021/01/30 00:39:24;;;;;;;7.90;5.82;;;;;;;;;;6346154;22;20189;-92
2021/01/30 00:41:50;;;;;;;8.38;7.57;;;;;;;;;;6347515;22;20641;-92
2021/01/30 00:44:17;;;;;;;7.90;6.10;;;;;;;;;;6348200;22;20239;-93
2021/01/30 00:46:43;;;;;;;5.45;4.40;;;;;;;;;;6348947;22;20451;-93
2021/01/30 00:49:10;;;;;;;4.93;4.40;;;;;;;;;;6348232;22;20183;-94
2021/01/30 00:51:36;;;;;;;4.17;3.50;;;;;;;;;;6349467;22;20217;-94
2021/01/30 00:54:02;;;;;;;4.47;4.07;;;;;;;;;;6347730;22;20517;-92
2021/01/30 00:56:28;;;;;;;4.70;4.30;;;;;;;;;;6349747;22;20410;-93
2021/01/30 00:58:54;;;;;;;6.43;4.43;;;;;;;;;;6346333;22;20402;-92
2021/01/30 01:01:20;;;;;;;4.10;3.70;;;;;;;;;;6347816;22;20406;-92
2021/01/30 01:03:46;;;;;;;6.00;4.20;;;;;;;;;;6347735;22;20414;-90
2021/01/30 01:06:13;;;;;;;5.23;4.60;;;;;;;;;;6349161;22;20410;-90
2021/01/30 01:08:39;;;;;;;7.45;5.78;;;;;;;;;;6348445;22;20403;-90
2021/01/30 01:11:05;;;;;;;7.87;6.30;;;;;;;;;;6348720;22;20183;-90
2021/01/30 01:13:30;;;;;;;7.63;6.73;;;;;;;;;;6346247;22;20415;-90
2021/01/30 01:15:57;;;;;;;9.00;7.83;;;;;;;;;;6346316;22;20438;-90
2021/01/30 01:18:23;;;;;;;9.00;6.97;;;;;;;;;;6346374;22;20414;-91
2021/01/30 01:20:49;;;;;;;8.93;5.70;;;;;;;;;;6345811;22;20413;-92
2021/01/30 01:23:16;;;;;;;7.70;6.90;;;;;;;;;;6347076;22;20435;-91
2021/01/30 01:25:42;;;;;;;6.97;5.77;;;;;;;;;;6345254;22;20414;-92
2021/01/30 01:28:08;;;;;;;7.70;6.33;;;;;;;;;;6348944;22;20457;-92
2021/01/30 01:30:34;;;;;;;6.90;6.20;;;;;;;;;;6347665;22;20468;-92
2021/01/30 01:33:00;;;;;;;8.10;6.10;;;;;;;;;;6349279;22;20414;-92
2021/01/30 01:35:28;;;;;;;7.53;5.80;;;;;;;;;;6346786;22;20403;-91
2021/01/30 01:37:54;;;;;;;7.40;6.03;;;;;;;;;;6348652;22;20799;-92
2021/01/30 01:40:22;;;;;;;5.30;4.80;;;;;;;;;;6348858;22;20416;-95
2021/01/30 01:42:56;;;;;;;4.50;4.10;;;;;;;;;;6352254;22;20403;-95
2021/01/30 01:45:22;;;;;;;4.07;3.70;;;;;;;;;;6350681;22;20424;-92
2021/01/30 01:47:48;;;;;;;4.57;3.97;;;;;;;;;;6350126;22;20466;-91
2021/01/30 01:50:19;;;;;;;6.40;5.50;;;;;;;;;;6348368;22;20521;-91
2021/01/30 01:52:45;;;;;;;8.57;6.77;;;;;;;;;;6350433;22;20403;-91
2021/01/30 01:55:13;;;;;;;8.10;6.70;;;;;;;;;;6348962;22;20432;-91
2021/01/30 01:57:41;;;;;;;8.90;7.43;;;;;;;;;;6349680;22;20403;-90
2021/01/30 02:00:08;;;;;;;8.93;7.60;;;;;;;;;;6343373;22;20409;-92
2021/01/30 02:02:34;;;;;;;7.03;6.23;;;;;;;;;;6343553;22;20429;-91
2021/01/30 02:05:17;;;;;;;5.63;5.03;;;;;;;;;;6351571;22;20407;-95
2021/01/30 02:07:44;;;;;;;4.80;4.23;;;;;;;;;;6346456;22;20447;-93
2021/01/30 02:10:12;;;;;;;4.60;4.20;;;;;;;;;;6349078;22;20399;-91
2021/01/30 02:12:38;;;;;;;5.10;4.20;;;;;;;;;;6347999;22;20892;-92
2021/01/30 02:15:06;;;;;;;5.17;3.60;;;;;;;;;;6347770;22;20410;-90
2021/01/30 02:17:40;;;;;;;5.50;3.80;;;;;;;;;;6344950;22;20637;-90
2021/01/30 02:20:26;;;;;;;5.03;4.47;;;;;;;;;;6345097;22;20399;-90
2021/01/30 02:23:09;;;;;;;7.10;5.93;;;;;;;;;;6343525;22;20442;-89
2021/01/30 02:26:02;;;;;;;8.53;7.23;;;;;;;;;;6345602;22;20404;-90
2021/01/30 02:28:32;;;;;;;8.00;6.63;;;;;;;;;;6239955;22;20443;-91
2021/01/30 02:31:06;;;;;;;9.03;7.43;;;;;;;;;;6312857;22;20450;-89
2021/01/30 02:33:50;;;;;;;8.60;6.50;;;;;;;;;;6315132;22;20465;-89
2021/01/30 02:36:23;;;;;;;8.40;6.60;;;;;;;;;;6317606;22;20415;-89
2021/01/30 02:38:53;;;;;;;7.70;6.17;;;;;;;;;;6317525;22;20406;-89
2021/01/30 02:41:21;;;;;;;7.80;6.53;;;;;;;;;;6319034;22;20889;-89
2021/01/30 02:43:48;;;;;;;6.00;5.40;;;;;;;;;;6317844;22;20411;-91
2021/01/30 02:46:18;;;;;;;7.27;6.27;;;;;;;;;;6318712;22;20431;-90
2021/01/30 02:48:46;;;;;;;7.60;6.07;;;;;;;;;;6314675;22;20436;-90
2021/01/30 02:51:15;;;;;;;7.00;5.70;;;;;;;;;;6316047;22;20416;-90
2021/01/30 02:53:45;;;;;;;6.60;5.90;;;;;;;;;;6317250;22;20407;-91
2021/01/30 02:56:12;;;;;;;6.83;6.07;;;;;;;;;;6319576;22;20404;-91
2021/01/30 02:58:41;;;;;;;8.17;6.57;;;;;;;;;;6317109;22;20408;-92
2021/01/30 03:01:07;;;;;;;9.63;7.60;;;;;;;;;;6318544;22;20415;-91
2021/01/30 03:03:33;;;;;;;7.90;6.63;;;;;;;;;;6314837;22;20406;-90
2021/01/30 03:06:00;;;;;;;8.90;7.57;;;;;;;;;;6316129;22;20416;-91
2021/01/30 03:08:29;;;;;;;8.40;6.73;;;;;;;;;;6316411;22;20474;-91
2021/01/30 03:10:59;;;;;;;7.80;7.00;;;;;;;;;;6317119;22;20424;-90
2021/01/30 03:13:27;;;;;;;7.87;7.07;;;;;;;;;;6317639;22;20414;-90
2021/01/30 03:15:55;;;;;;;6.43;5.77;;;;;;;;;;6318494;22;20404;-91
2021/01/30 03:18:22;;;;;;;7.37;6.63;;;;;;;;;;6316838;22;20412;-91
2021/01/30 03:20:48;;;;;;;6.63;5.87;;;;;;;;;;6317297;22;20744;-90
2021/01/30 03:23:14;;;;;;;6.70;5.87;;;;;;;;;;6319140;22;20403;-90
2021/01/30 03:25:41;;;;;;;8.07;6.50;;;;;;;;;;6317233;22;20411;-90
2021/01/30 03:28:10;;;;;;;6.37;5.70;;;;;;;;;;6316613;22;20447;-90
2021/01/30 03:30:36;;;;;;;10.33;7.73;;;;;;;;;;6314921;22;20409;-92
2021/01/30 03:33:03;;;;;;;17.50;11.60;;;;;;;;;;6318271;22;20671;-91
2021/01/30 03:35:29;;;;;;;11.70;9.27;;;;;;;;;;6317357;22;20412;-90
2021/01/30 03:37:55;;;;;;;11.10;8.60;;;;;;;;;;6318646;22;20411;-91
2021/01/30 03:40:22;;;;;;;18.33;12.70;;;;;;;;;;6316880;22;20410;-92
2021/01/30 03:42:48;;;;;;;21.50;15.13;;;;;;;;;;6317009;22;20407;-92
2021/01/30 03:45:18;;;;;;;15.43;11.93;;;;;;;;;;6315603;22;20434;-91
2021/01/30 03:47:44;;;;;;;16.07;11.60;;;;;;;;;;6317269;22;21021;-91
2021/01/30 03:50:11;;;;;;;14.70;10.83;;;;;;;;;;6316105;22;20422;-91
2021/01/30 03:52:37;;;;;;;17.90;11.37;;;;;;;;;;6315726;22;20767;-91
2021/01/30 03:55:04;;;;;;;20.30;13.10;;;;;;;;;;6313264;22;20954;-92
2021/01/30 03:57:29;;;;;;;22.10;13.97;;;;;;;;;;6318295;22;20448;-91
2021/01/30 03:59:55;;;;;;;20.30;14.40;;;;;;;;;;6317107;22;20403;-91
2021/01/30 04:02:22;;;;;;;27.20;16.87;;;;;;;;;;6317544;22;20463;-91
2021/01/30 04:04:48;;;;;;;19.77;13.60;;;;;;;;;;6317072;22;20431;-92
2021/01/30 04:07:14;;;;;;;22.03;14.90;;;;;;;;;;6316166;22;20483;-92
2021/01/30 04:09:40;;;;;;;24.37;15.60;;;;;;;;;;6318008;22;20396;-90
2021/01/30 04:12:06;;;;;;;27.13;17.00;;;;;;;;;;6315809;22;20404;-91
2021/01/30 04:14:33;;;;;;;25.13;16.80;;;;;;;;;;6315556;22;20462;-91
2021/01/30 04:16:59;;;;;;;25.23;15.73;;;;;;;;;;6315326;22;20419;-92
2021/01/30 04:19:25;;;;;;;21.20;14.40;;;;;;;;;;6318419;22;20402;-91
2021/01/30 04:21:51;;;;;;;22.97;15.50;;;;;;;;;;6317025;22;20435;-92
2021/01/30 04:24:17;;;;;;;22.23;13.07;;;;;;;;;;6317648;22;20442;-93
2021/01/30 04:26:46;;;;;;;17.47;12.10;;;;;;;;;;6315762;22;20477;-91
2021/01/30 04:29:11;;;;;;;20.07;13.53;;;;;;;;;;6315677;22;20412;-91
2021/01/30 04:31:37;;;;;;;19.63;13.87;;;;;;;;;;6314501;22;20505;-91
2021/01/30 04:34:03;;;;;;;27.30;17.83;;;;;;;;;;6317390;22;20463;-91
2021/01/30 04:36:30;;;;;;;24.87;15.10;;;;;;;;;;6315219;22;20460;-91
2021/01/30 04:38:57;;;;;;;27.20;17.70;;;;;;;;;;6315360;22;20408;-91
2021/01/30 04:41:40;;;;;;;32.50;21.03;;;;;;;;;;6315254;22;20440;-91
2021/01/30 04:44:09;;;;;;;35.10;22.10;;;;;;;;;;6316751;22;20404;-91
2021/01/30 04:46:41;;;;;;;33.40;21.80;;;;;;;;;;6315838;22;20407;-92
2021/01/30 04:49:11;;;;;;;38.50;24.20;;;;;;;;;;6314809;22;20402;-91
2021/01/30 04:51:42;;;;;;;38.93;25.10;;;;;;;;;;6315096;22;20427;-90
2021/01/30 04:54:17;;;;;;;40.30;23.50;;;;;;;;;;6315483;22;20407;-90
2021/01/30 04:56:48;;;;;;;31.00;20.80;;;;;;;;;;6317010;22;20719;-92
2021/01/30 04:59:18;;;;;;;35.63;22.40;;;;;;;;;;6315745;22;20400;-91
2021/01/30 05:01:46;;;;;;;33.33;22.70;;;;;;;;;;6316364;22;20400;-91
2021/01/30 05:04:15;;;;;;;37.00;24.87;;;;;;;;;;6312787;22;20745;-91
2021/01/30 05:06:47;;;;;;;39.40;25.23;;;;;;;;;;6315148;22;20938;-91
2021/01/30 05:09:16;;;;;;;35.67;23.70;;;;;;;;;;6316612;22;20444;-91
2021/01/30 05:11:45;;;;;;;38.37;25.27;;;;;;;;;;6317430;22;20408;-91
2021/01/30 05:14:14;;;;;;;37.13;23.40;;;;;;;;;;6316768;22;20899;-90
2021/01/30 05:16:43;;;;;;;36.00;22.40;;;;;;;;;;6318573;22;20477;-91
2021/01/30 05:19:11;;;;;;;32.97;22.53;;;;;;;;;;6315711;22;20407;-91
2021/01/30 05:21:39;;;;;;;33.40;22.57;;;;;;;;;;6317439;22;20436;-90
2021/01/30 05:24:07;;;;;;;35.97;24.73;;;;;;;;;;6318304;22;20410;-91
2021/01/30 05:26:39;;;;;;;31.97;23.23;;;;;;;;;;6319759;22;20456;-90
2021/01/30 05:29:08;;;;;;;35.60;22.20;;;;;;;;;;6319032;22;20400;-91
2021/01/30 05:31:39;;;;;;;34.37;24.07;;;;;;;;;;6319353;22;20419;-91
2021/01/30 05:34:07;;;;;;;36.92;25.70;;;;;;;;;;6317495;22;20407;-90
2021/01/30 05:36:37;;;;;;;34.60;24.20;;;;;;;;;;6318975;22;20194;-91
2021/01/30 05:39:07;;;;;;;38.37;24.20;;;;;;;;;;6317644;22;20726;-91
2021/01/30 05:41:39;;;;;;;29.63;21.33;;;;;;;;;;6319282;22;20400;-91
2021/01/30 05:44:07;;;;;;;30.23;21.45;;;;;;;;;;6318120;22;20178;-91
2021/01/30 05:46:34;;;;;;;30.10;21.87;;;;;;;;;;6318544;22;20177;-92
2021/01/30 05:49:02;;;;;;;27.33;18.17;;;;;;;;;;6317302;22;20429;-91
2021/01/30 05:51:31;;;;;;;23.00;16.73;;;;;;;;;;6317071;22;20419;-91
2021/01/30 05:53:57;;;;;;;23.20;17.30;;;;;;;;;;6318809;22;20399;-91
2021/01/30 05:56:23;;;;;;;20.10;14.83;;;;;;;;;;6317346;22;21066;-91
2021/01/30 05:58:50;;;;;;;20.37;16.13;;;;;;;;;;6318286;22;20414;-91
2021/01/30 06:01:21;;;;;;;19.40;16.17;;;;;;;;;;6315844;22;21117;-92
2021/01/30 06:03:53;;;;;;;21.90;15.73;;;;;;;;;;6316438;22;20426;-93
2021/01/30 06:06:19;;;;;;;20.83;16.03;;;;;;;;;;6315315;22;20422;-90
2021/01/30 06:08:54;;;;;;;20.17;15.60;;;;;;;;;;6319541;22;20452;-91
2021/01/30 06:11:20;;;;;;;18.27;15.93;;;;;;;;;;6318174;22;20411;-90
2021/01/30 06:13:52;;;;;;;17.70;14.77;;;;;;;;;;6317610;22;20849;-93
2021/01/30 06:16:33;;;;;;;22.58;16.80;;;;;;;;;;6316667;22;20402;-93
2021/01/30 06:19:08;;;;;;;26.93;16.53;;;;;;;;;;6317778;22;20203;-93
2021/01/30 06:21:34;;;;;;;30.27;20.00;;;;;;;;;;6316368;22;20470;-93
2021/01/30 06:24:01;;;;;;;29.57;21.60;;;;;;;;;;6319518;22;20404;-94
2021/01/30 06:26:28;;;;;;;34.80;22.58;;;;;;;;;;6317137;22;20414;-94
2021/01/30 06:28:59;;;;;;;28.83;20.93;;;;;;;;;;6318248;22;20676;-95
2021/01/30 06:31:27;;;;;;;32.40;23.60;;;;;;;;;;6316385;22;20483;-95
2021/01/30 06:33:55;;;;;;;29.90;21.43;;;;;;;;;;6318465;22;20426;-94
2021/01/30 06:36:22;;;;;;;37.23;25.17;;;;;;;;;;6317355;22;20453;-93
2021/01/30 06:38:51;;;;;;;41.40;28.67;;;;;;;;;;6318118;22;21190;-94
2021/01/30 06:41:22;;;;;;;47.10;32.67;;;;;;;;;;6316579;22;20411;-95
2021/01/30 06:43:50;;;;;;;39.50;28.40;;;;;;;;;;6318128;22;20411;-95
2021/01/30 06:46:18;;;;;;;36.88;26.30;;;;;;;;;;6317200;22;20414;-94
2021/01/30 06:48:45;;;;;;;34.15;24.52;;;;;;;;;;6318985;22;20212;-96
2021/01/30 06:51:22;;;;;;;32.30;22.50;;;;;;;;;;6318313;22;20564;-93
2021/01/30 06:53:48;;;;;;;37.23;24.33;;;;;;;;;;6317191;22;20437;-94
2021/01/30 06:56:15;;;;;;;37.43;24.87;;;;;;;;;;6318226;22;20438;-93
2021/01/30 06:58:42;;;;;;;39.23;26.60;;;;;;;;;;6317153;22;20415;-93
2021/01/30 07:01:09;;;;;;;47.77;30.43;;;;;;;;;;6318326;22;20717;-93
2021/01/30 07:03:56;;;;;;;45.67;30.87;;;;;;;;;;6313697;22;20771;-94
2021/01/30 07:06:25;;;;;;;43.80;28.53;;;;;;;;;;6307176;22;20419;-93
2021/01/30 07:08:57;;;;;;;41.43;28.53;;;;;;;;;;6316510;22;20450;-94
2021/01/30 07:11:30;;;;;;;22.63;15.60;;;;;;;;;;6318000;22;20412;-93
2021/01/30 07:14:01;;;;;;;17.10;11.43;;;;;;;;;;6317004;22;20410;-92
2021/01/30 07:16:29;;;;;;;14.93;8.40;;;;;;;;;;6318865;22;21342;-93
2021/01/30 07:19:02;;;;;;;12.63;7.93;;;;;;;;;;6316849;22;20425;-96
2021/01/30 07:21:30;;;;;;;12.90;6.57;;;;;;;;;;6317790;22;20434;-95
2021/01/30 07:24:06;;;;;;;15.30;7.57;;;;;;;;;;6316087;22;20408;-94
2021/01/30 07:26:35;;;;;;;5.83;4.67;;;;;;;;;;6320084;22;20425;-95
2021/01/30 07:29:13;;;;;;;8.83;5.13;;;;;;;;;;6319796;22;20451;-96
2021/01/30 07:31:41;;;;;;;9.97;5.20;;;;;;;;;;6322177;22;20460;-96
2021/01/30 07:34:42;;;;;;;5.93;4.80;;;;;;;;;;6332909;22;20425;-96
2021/01/30 07:37:14;;;;;;;14.57;9.33;;;;;;;;;;6326346;22;20429;-95
2021/01/30 07:39:43;;;;;;;20.10;13.80;;;;;;;;;;6323291;22;20443;-94
2021/01/30 07:42:21;;;;;;;20.73;15.37;;;;;;;;;;6329265;22;20387;-96
2021/01/30 07:45:02;;;;;;;16.73;12.30;;;;;;;;;;6316117;22;20798;-91
2021/01/30 07:47:34;;;;;;;17.50;11.27;;;;;;;;;;6316742;22;20431;-93
2021/01/30 07:50:03;;;;;;;18.00;13.83;;;;;;;;;;6315844;22;20440;-94
2021/01/30 07:52:32;;;;;;;20.87;14.17;;;;;;;;;;6319626;22;20416;-93
2021/01/30 07:54:59;;;;;;;18.00;14.47;;;;;;;;;;6316177;22;20418;-91
2021/01/30 07:57:38;;;;;;;17.07;13.87;;;;;;;;;;6319047;22;20414;-95
2021/01/30 08:00:08;;;;;;;20.00;14.63;;;;;;;;;;6318610;22;20443;-94
2021/01/30 08:02:51;;;;;;;17.60;12.40;;;;;;;;;;6320097;22;20836;-94
2021/01/30 08:05:31;;;;;;;13.87;11.37;;;;;;;;;;6318162;22;20418;-91
2021/01/30 08:08:04;;;;;;;17.83;12.67;;;;;;;;;;6318612;22;20528;-90
2021/01/30 08:10:34;;;;;;;12.60;9.47;;;;;;;;;;6316908;22;20411;-95
2021/01/30 08:13:10;;;;;;;15.00;11.03;;;;;;;;;;6317190;22;20419;-93
2021/01/30 08:15:45;;;;;;;19.27;12.30;;;;;;;;;;6318032;22;20407;-95
2021/01/30 08:18:21;;;;;;;11.10;9.90;;;;;;;;;;6318919;22;20429;-93
2021/01/30 08:20:50;;;;;;;5.50;4.80;;;;;;;;;;6315512;22;20828;-95
2021/01/30 08:23:24;;;;;;;6.00;5.20;;;;;;;;;;6315840;22;20446;-93
2021/01/30 08:25:54;;;;;;;5.47;4.70;;;;;;;;;;6314189;22;20414;-95
2021/01/30 08:28:24;;;;;;;4.13;3.73;;;;;;;;;;6317083;22;20485;-95
2021/01/30 08:30:52;;;;;;;11.17;9.27;;;;;;;;;;6315746;22;20442;-95
2021/01/30 08:33:18;;;;;;;20.90;17.10;;;;;;;;;;6317739;22;20775;-95
2021/01/30 08:35:53;;;;;;;10.87;8.37;;;;;;;;;;6318307;22;20396;-95
2021/01/30 08:38:39;;;;;;;12.57;10.40;;;;;;;;;;6318502;22;20698;-94
2021/01/30 08:41:13;;;;;;;14.47;10.80;;;;;;;;;;6315901;22;20442;-94
2021/01/30 08:43:40;;;;;;;10.13;8.33;;;;;;;;;;6316212;22;20408;-95
2021/01/30 08:46:26;;;;;;;6.20;4.50;;;;;;;;;;6314422;22;20407;-95
2021/01/30 08:49:45;;;;;;;3.73;3.37;;;;;;;;;;6314875;22;20455;-96
2021/01/30 08:52:26;;;;;;;3.07;2.70;;;;;;;;;;6318030;22;20410;-96
2021/01/30 08:54:59;;;;;;;3.50;2.50;;;;;;;;;;6326944;22;20435;-95
2021/01/30 08:57:55;;;;;;;3.50;3.20;;;;;;;;;;6321370;22;20487;-94
2021/01/30 09:00:42;;;;;;;3.53;3.20;;;;;;;;;;6320704;22;20400;-94
2021/01/30 09:03:08;;;;;;;4.50;3.27;;;;;;;;;;6318644;22;20405;-95
2021/01/30 09:05:42;;;;;;;4.13;3.20;;;;;;;;;;6320539;22;20404;-94
2021/01/30 09:08:31;;;;;;;4.07;3.73;;;;;;;;;;6323684;22;20439;-94
2021/01/30 09:11:19;;;;;;;3.40;2.63;;;;;;;;;;6323798;22;20415;-96
2021/01/30 09:14:05;;;;;;;5.57;3.30;;;;;;;;;;6306050;22;20432;-95
2021/01/30 09:19:26;;;;;;;3.17;2.90;;;;;;;;;;6318082;22;20462;-94
2021/01/30 09:22:02;;;;;;;4.87;4.07;;;;;;;;;;6326029;22;20449;-95
2021/01/30 09:24:48;;;;;;;7.53;6.13;;;;;;;;;;6323415;22;20403;-93
2021/01/30 09:30:10;;;;;;;7.73;6.40;;;;;;;;;;6295135;22;20419;-92
2021/01/30 09:32:43;;;;;;;7.60;6.90;;;;;;;;;;6317344;22;20455;-93
2021/01/30 09:35:14;;;;;;;6.97;6.27;;;;;;;;;;6318499;22;21234;-92
2021/01/30 09:37:43;;;;;;;2.97;2.67;;;;;;;;;;6319562;22;20400;-95
2021/01/30 09:40:22;;;;;;;2.60;2.40;;;;;;;;;;6319941;22;20407;-95
2021/01/30 09:42:55;;;;;;;2.47;2.27;;;;;;;;;;6318703;22;20411;-92
2021/01/30 09:45:29;;;;;;;4.30;2.77;;;;;;;;;;6315882;22;20400;-95
2021/01/30 09:50:52;;;;;;;2.43;2.27;;;;;;;;;;6322274;22;20428;-94
2021/01/30 09:53:27;;;;;;;3.00;2.80;;;;;;;;;;6298490;22;20407;-95
2021/01/30 09:56:02;;;;;;;3.60;3.10;;;;;;;;;;6319368;22;20418;-93
2021/01/30 09:58:28;;;;;;;3.17;2.87;;;;;;;;;;6320791;22;20404;-93
2021/01/30 10:01:06;;;;;;;4.07;3.50;;;;;;;;;;6322775;22;20416;-96
2021/01/30 10:03:35;;;;;;;3.83;3.07;;;;;;;;;;6322011;22;20413;-95
2021/01/30 10:06:19;;;;;;;4.07;3.40;;;;;;;;;;6321289;22;20484;-95
2021/01/30 10:08:46;;;;;;;3.73;3.40;;;;;;;;;;6323378;22;20439;-95
2021/01/30 10:11:16;;;;;;;5.03;4.27;;;;;;;;;;6321123;22;20932;-93
2021/01/30 10:13:44;;;;;;;3.70;3.23;;;;;;;;;;6322493;22;20408;-95
2021/01/30 10:16:12;;;;;;;3.67;3.30;;;;;;;;;;6320279;22;20462;-92
2021/01/30 10:18:39;;;;;;;4.43;4.00;;;;;;;;;;6320377;22;20404;-96
2021/01/30 10:24:21;;;;;;;3.50;3.20;;;;;;;;;;6322534;22;20409;-96
2021/01/30 10:26:47;;;;;;;5.30;4.27;;;;;;;;;;6323862;22;20388;-94
2021/01/30 10:29:15;;;;;;;5.30;4.10;;;;;;;;;;6324656;22;20443;-96
2021/01/30 10:31:50;;;;;;;5.07;4.10;;;;;;;;;;6327449;22;20448;-96
2021/01/30 10:34:21;;;;;;;4.60;3.80;;;;;;;;;;6320266;22;20403;-90
2021/01/30 10:36:51;;;;;;;4.20;3.80;;;;;;;;;;6315928;22;20416;-92
2021/01/30 10:39:18;;;;;;;4.33;3.90;;;;;;;;;;6318262;22;20480;-92
2021/01/30 10:41:44;;;;;;;5.40;3.30;;;;;;;;;;6317978;22;20408;-94
2021/01/30 10:44:13;;;;;;;4.17;3.73;;;;;;;;;;6317255;22;20411;-93
2021/01/30 10:46:43;;;;;;;5.10;4.07;;;;;;;;;;6314938;22;20423;-93
2021/01/30 10:49:11;;;;;;;6.20;4.30;;;;;;;;;;6317019;22;20451;-91
2021/01/30 10:51:37;;;;;;;4.80;4.30;;;;;;;;;;6316736;22;20411;-92
2021/01/30 10:54:24;;;;;;;5.23;4.53;;;;;;;;;;6321595;22;20418;-95
2021/01/30 10:57:12;;;;;;;5.90;4.07;;;;;;;;;;6319113;22;20410;-94
2021/01/30 10:59:44;;;;;;;4.80;3.97;;;;;;;;;;6321452;22;20412;-94
2021/01/30 11:02:28;;;;;;;4.20;3.80;;;;;;;;;;6318198;22;20420;-93
2021/01/30 11:05:01;;;;;;;9.17;5.07;;;;;;;;;;6321659;22;20858;-96
2021/01/30 11:07:41;;;;;;;7.40;6.20;;;;;;;;;;6319324;22;20432;-94
2021/01/30 11:10:18;;;;;;;9.23;8.23;;;;;;;;;;6320274;22;20414;-95
2021/01/30 11:12:44;;;;;;;7.73;4.60;;;;;;;;;;6317311;22;20908;-94
2021/01/30 11:15:12;;;;;;;6.97;5.30;;;;;;;;;;6320003;22;20404;-93
2021/01/30 11:17:48;;;;;;;8.20;4.80;;;;;;;;;;6320085;22;20731;-96
2021/01/30 11:20:14;;;;;;;5.50;5.00;;;;;;;;;;6325365;22;20411;-94
2021/01/30 11:22:49;;;;;;;5.57;4.90;;;;;;;;;;6320699;22;20419;-93
2021/01/30 11:25:16;;;;;;;6.80;6.10;;;;;;;;;;6316868;22;20448;-95
2021/01/30 11:27:45;;;;;;;6.80;4.80;;;;;;;;;;6323298;22;20445;-94
2021/01/30 11:30:16;;;;;;;5.83;5.23;;;;;;;;;;6323453;22;20431;-96
2021/01/30 11:32:43;;;;;;;6.00;5.10;;;;;;;;;;6325272;22;20443;-94
2021/01/30 11:35:14;;;;;;;5.70;4.60;;;;;;;;;;6323134;22;20409;-96
2021/01/30 11:37:41;;;;;;;5.27;4.40;;;;;;;;;;6314782;22;20416;-95
2021/01/30 11:40:11;;;;;;;6.70;5.13;;;;;;;;;;6321210;22;20414;-94
2021/01/30 11:42:49;;;;;;;6.27;5.67;;;;;;;;;;6323711;22;20405;-95
2021/01/30 11:45:16;;;;;;;7.80;6.13;;;;;;;;;;6320032;22;20915;-95
2021/01/30 11:47:42;;;;;;;6.20;5.60;;;;;;;;;;6319485;22;20523;-95
2021/01/30 11:50:23;;;;;;;8.13;4.60;;;;;;;;;;6322635;22;20405;-96
2021/01/30 11:52:49;;;;;;;5.03;4.63;;;;;;;;;;6324225;22;20416;-95
2021/01/30 11:55:15;;;;;;;5.63;5.13;;;;;;;;;;6320264;22;20407;-94
2021/01/30 11:57:42;;;;;;;5.03;4.53;;;;;;;;;;6320696;22;20417;-96
2021/01/30 12:00:21;;;;;;;4.83;4.00;;;;;;;;;;6321205;22;20405;-95
2021/01/30 12:02:47;;;;;;;5.77;4.50;;;;;;;;;;6325506;22;20400;-95
2021/01/30 12:05:14;;;;;;;7.40;4.07;;;;;;;;;;6322780;22;20403;-96
2021/01/30 12:07:48;;;;;;;6.10;4.90;;;;;;;;;;6325236;22;20457;-96
2021/01/30 12:10:15;;;;;;;5.10;4.23;;;;;;;;;;6320417;22;20411;-95
2021/01/30 12:12:49;;;;;;;4.90;4.50;;;;;;;;;;6323350;22;20445;-95
2021/01/30 12:15:16;;;;;;;7.07;4.07;;;;;;;;;;6320741;22;20459;-93
2021/01/30 12:17:43;;;;;;;5.07;4.43;;;;;;;;;;6318428;22;20411;-92
2021/01/30 12:20:11;;;;;;;4.03;3.70;;;;;;;;;;6316042;22;20405;-94
2021/01/30 12:22:37;;;;;;;5.30;4.70;;;;;;;;;;6317798;22;20406;-96
2021/01/30 12:25:05;;;;;;;4.50;3.10;;;;;;;;;;6316637;22;20458;-93
2021/01/30 12:27:31;;;;;;;6.57;4.93;;;;;;;;;;6318058;22;20436;-94
2021/01/30 12:29:57;;;;;;;5.43;4.10;;;;;;;;;;6315343;22;20439;-92
2021/01/30 12:32:24;;;;;;;4.33;3.93;;;;;;;;;;6314805;22;20408;-92
2021/01/30 12:34:52;;;;;;;3.90;2.97;;;;;;;;;;6311048;22;20402;-93
2021/01/30 12:37:18;;;;;;;4.10;3.70;;;;;;;;;;6316370;22;20402;-91
2021/01/30 12:39:47;;;;;;;4.13;3.77;;;;;;;;;;6316003;22;20417;-95
2021/01/30 12:42:13;;;;;;;4.93;3.60;;;;;;;;;;6322430;22;20385;-96
2021/01/30 12:44:39;;;;;;;4.27;3.87;;;;;;;;;;6321226;22;20890;-94
2021/01/30 12:47:09;;;;;;;5.70;3.67;;;;;;;;;;6323384;22;20482;-96
2021/01/30 12:49:53;;;;;;;5.87;3.93;;;;;;;;;;6318292;22;20461;-95
2021/01/30 12:52:21;;;;;;;3.20;2.90;;;;;;;;;;6324556;22;20462;-95
2021/01/30 12:54:49;;;;;;;5.93;3.50;;;;;;;;;;6323247;22;20486;-94
2021/01/30 12:57:15;;;;;;;3.27;2.80;;;;;;;;;;6319764;22;20437;-92
2021/01/30 12:59:41;;;;;;;4.70;3.70;;;;;;;;;;6322287;22;20407;-93
2021/01/30 13:02:08;;;;;;;3.57;3.23;;;;;;;;;;6315946;22;20400;-93
2021/01/30 13:04:34;;;;;;;3.13;2.83;;;;;;;;;;6318934;22;20407;-92
2021/01/30 13:07:03;;;;;;;3.70;3.40;;;;;;;;;;6316471;22;20414;-95
2021/01/30 13:09:30;;;;;;;3.50;3.20;;;;;;;;;;6321629;22;20456;-93
2021/01/30 13:11:57;;;;;;;3.20;2.90;;;;;;;;;;6317754;22;20395;-92
2021/01/30 13:14:23;;;;;;;3.00;2.70;;;;;;;;;;6319039;22;20406;-92
2021/01/30 13:16:50;;;;;;;4.50;3.50;;;;;;;;;;6317212;22;20414;-94
2021/01/30 13:19:16;;;;;;;3.40;3.10;;;;;;;;;;6319709;22;20473;-95
2021/01/30 13:21:45;;;;;;;6.60;4.50;;;;;;;;;;6318165;22;20402;-94
2021/01/30 13:24:14;;;;;;;5.47;4.20;;;;;;;;;;6320548;22;20410;-94
2021/01/30 13:26:41;;;;;;;5.23;4.10;;;;;;;;;;6320821;22;20407;-92
2021/01/30 13:29:07;;;;;;;3.87;3.57;;;;;;;;;;6318025;22;20457;-92
2021/01/30 13:31:42;;;;;;;4.00;3.30;;;;;;;;;;6318750;22;20424;-94
2021/01/30 13:34:09;;;;;;;3.50;3.20;;;;;;;;;;6288897;22;20987;-94
2021/01/30 13:36:38;;;;;;;3.13;2.80;;;;;;;;;;6322255;22;20402;-93
2021/01/30 13:39:05;;;;;;;3.70;3.30;;;;;;;;;;6292979;22;20956;-93
2021/01/30 13:41:32;;;;;;;4.60;3.30;;;;;;;;;;6319020;22;20419;-93
2021/01/30 13:43:59;;;;;;;4.60;3.23;;;;;;;;;;6319134;22;20436;-93
2021/01/30 13:46:25;;;;;;;3.77;3.40;;;;;;;;;;6313296;22;20406;-94
2021/01/30 13:48:52;;;;;;;3.00;2.57;;;;;;;;;;6315906;22;20450;-93
2021/01/30 13:51:18;;;;;;;4.40;3.10;;;;;;;;;;6316525;22;20423;-96
2021/01/30 13:53:44;;;;;;;3.60;3.30;;;;;;;;;;6308139;22;20854;-94
2021/01/30 13:56:10;;;;;;;3.13;2.80;;;;;;;;;;6307875;22;20434;-91
2021/01/30 13:58:39;;;;;;;4.07;3.00;;;;;;;;;;6311821;22;20404;-93
2021/01/30 14:01:05;;;;;;;3.90;3.33;;;;;;;;;;6321572;22;20416;-93
2021/01/30 14:03:31;;;;;;;3.47;3.20;;;;;;;;;;6315287;22;20424;-92
2021/01/30 14:06:10;;;;;;;4.27;3.73;;;;;;;;;;6322426;22;20424;-95
2021/01/30 14:08:37;;;;;;;3.03;2.73;;;;;;;;;;6320050;22;20449;-95
2021/01/30 14:11:06;;;;;;;3.87;3.23;;;;;;;;;;6333461;22;20470;-95
2021/01/30 14:21:58;;;;;;;7.17;5.00;;;;;;;;;;6320786;22;20491;-94
2021/01/30 14:24:25;;;;;;;8.80;5.07;;;;;;;;;;6320115;22;20509;-93
2021/01/30 14:30:05;;;;;;;7.03;5.20;;;;;;;;;;6322384;22;20457;-95
2021/01/30 14:32:31;;;;;;;5.93;5.33;;;;;;;;;;6328435;22;20400;-95
2021/01/30 14:35:03;;;;;;;5.00;4.43;;;;;;;;;;6331744;22;20495;-95
2021/01/30 15:10:24;;;;;;;7.40;6.20;;;;;;;;;;6327016;22;20451;-94
2021/01/30 15:24:35;;;;;;;7.50;6.40;;;;;;;;;;6347118;22;20451;-92
2021/01/30 15:27:11;;;;;;;10.53;7.10;;;;;;;;;;6359883;22;20407;-96
2021/01/30 15:32:12;;;;;;;11.43;8.40;;;;;;;;;;6319514;22;20460;-93
2021/01/30 15:34:38;;;;;;;9.77;7.90;;;;;;;;;;6319941;22;20407;-94
2021/01/30 15:37:05;;;;;;;11.20;7.83;;;;;;;;;;6318054;22;20396;-95
2021/01/30 15:39:33;;;;;;;11.27;8.50;;;;;;;;;;6318856;22;20436;-95
2021/01/30 15:41:59;;;;;;;14.87;9.83;;;;;;;;;;6322113;22;20422;-95
2021/01/30 15:44:26;;;;;;;13.00;9.03;;;;;;;;;;6320270;22;20699;-95
2021/01/30 15:46:53;;;;;;;12.67;8.77;;;;;;;;;;6320374;22;20418;-95
2021/01/30 15:49:19;;;;;;;11.20;8.53;;;;;;;;;;6318996;22;20490;-95
2021/01/30 15:51:47;;;;;;;10.97;8.37;;;;;;;;;;6318716;22;20415;-94
2021/01/30 15:54:14;;;;;;;14.10;10.20;;;;;;;;;;6319473;22;20396;-94
2021/01/30 15:56:41;;;;;;;13.67;9.87;;;;;;;;;;6321886;22;20487;-94
2021/01/30 16:07:53;;;;;;;28.10;19.10;;;;;;;;;;6329569;22;20506;-94